Terminal Aerodrome Forecast
Issued by NWS

Home | Current Version | Previous Version | Text Only | Print | Product List | Glossary On
Versions: 1 2 3 4 5 6 7 8 9 10 11 12 13 14 15 16 17 18 19 20 21 22 23 24 25 26 27 28 29 30 31 32 33 34 35 36 37 38 39 40 41 42 43 44 45
000
FTUS41 KCTP 221132 CCA
TAFUNV
TAF COR
KUNV 221132Z 2212/2312 36008KT 6SM BR SCT018 BKN035 OVC050
      TEMPO 2212/2214 BKN018 OVC035
     FM221700 34010G16KT P6SM VCSH SCT020 BKN035 OVC090
     FM222000 33012G18KT P6SM SCT025 OVC035
     FM230500 32010KT P6SM BKN025=

USA.gov is the U.S. government's official web portal to all federal, state and local government web resources and services.